sensor_id;sensor_type;location;lat;lon;timestamp;temperature;humidity
21353;DHT22;10834;52.268;6.770;2023-07-31T00:00:04;15.50;99.90
21353;DHT22;10834;52.268;6.770;2023-07-31T00:02:52;15.50;99.90
21353;DHT22;10834;52.268;6.770;2023-07-31T00:05:38;15.50;99.90
21353;DHT22;10834;52.268;6.770;2023-07-31T00:08:24;15.40;99.90
21353;DHT22;10834;52.268;6.770;2023-07-31T00:11:10;15.40;99.90
21353;DHT22;10834;52.268;6.770;2023-07-31T00:13:57;15.40;99.90
21353;DHT22;10834;52.268;6.770;2023-07-31T00:16:43;15.50;99.90
21353;DHT22;10834;52.268;6.770;2023-07-31T00:19:29;15.50;99.90
21353;DHT22;10834;52.268;6.770;2023-07-31T00:22:15;15.50;99.90
21353;DHT22;10834;52.268;6.770;2023-07-31T00:25:01;15.40;99.90
21353;DHT22;10834;52.268;6.770;2023-07-31T00:27:47;15.50;99.90
21353;DHT22;10834;52.268;6.770;2023-07-31T00:30:33;15.50;99.90
21353;DHT22;10834;52.268;6.770;2023-07-31T00:33:19;15.50;99.90
21353;DHT22;10834;52.268;6.770;2023-07-31T00:36:05;15.50;99.90
21353;DHT22;10834;52.268;6.770;2023-07-31T00:38:52;15.50;99.90
21353;DHT22;10834;52.268;6.770;2023-07-31T00:41:38;15.50;99.90
21353;DHT22;10834;52.268;6.770;2023-07-31T00:44:24;15.50;99.90
21353;DHT22;10834;52.268;6.770;2023-07-31T00:47:10;15.50;99.90
21353;DHT22;10834;52.268;6.770;2023-07-31T00:49:56;15.50;99.90
21353;DHT22;10834;52.268;6.770;2023-07-31T00:52:42;15.50;99.90
21353;DHT22;10834;52.268;6.770;2023-07-31T00:55:29;15.50;99.90
21353;DHT22;10834;52.268;6.770;2023-07-31T00:58:15;15.50;99.90
21353;DHT22;10834;52.268;6.770;2023-07-31T01:01:01;15.40;99.90
21353;DHT22;10834;52.268;6.770;2023-07-31T01:03:49;15.40;99.90
21353;DHT22;10834;52.268;6.770;2023-07-31T01:12:24;15.40;99.90
21353;DHT22;10834;52.268;6.770;2023-07-31T01:15:12;15.40;99.90
21353;DHT22;10834;52.268;6.770;2023-07-31T01:18:00;15.40;99.90
21353;DHT22;10834;52.268;6.770;2023-07-31T01:20:54;15.40;99.90
21353;DHT22;10834;52.268;6.770;2023-07-31T01:26:38;15.40;99.90
21353;DHT22;10834;52.268;6.770;2023-07-31T01:32:18;15.40;99.90
21353;DHT22;10834;52.268;6.770;2023-07-31T01:35:05;15.30;99.90
21353;DHT22;10834;52.268;6.770;2023-07-31T01:37:54;15.40;99.90
21353;DHT22;10834;52.268;6.770;2023-07-31T01:40:43;15.40;99.90
21353;DHT22;10834;52.268;6.770;2023-07-31T01:43:29;15.40;99.90
21353;DHT22;10834;52.268;6.770;2023-07-31T01:46:15;15.40;99.90
21353;DHT22;10834;52.268;6.770;2023-07-31T01:49:01;15.40;99.90
21353;DHT22;10834;52.268;6.770;2023-07-31T01:51:47;15.40;99.90
21353;DHT22;10834;52.268;6.770;2023-07-31T01:54:33;15.40;99.90
21353;DHT22;10834;52.268;6.770;2023-07-31T01:57:19;15.40;99.90
21353;DHT22;10834;52.268;6.770;2023-07-31T02:00:06;15.40;99.90
21353;DHT22;10834;52.268;6.770;2023-07-31T02:02:52;15.40;99.90
21353;DHT22;10834;52.268;6.770;2023-07-31T02:05:45;15.40;99.90
21353;DHT22;10834;52.268;6.770;2023-07-31T02:08:31;15.40;99.90
21353;DHT22;10834;52.268;6.770;2023-07-31T02:11:17;15.40;99.90
21353;DHT22;10834;52.268;6.770;2023-07-31T02:14:03;15.40;99.90
21353;DHT22;10834;52.268;6.770;2023-07-31T02:16:49;15.40;99.90
21353;DHT22;10834;52.268;6.770;2023-07-31T02:19:35;15.40;99.90
21353;DHT22;10834;52.268;6.770;2023-07-31T02:22:21;15.50;99.90
21353;DHT22;10834;52.268;6.770;2023-07-31T02:25:08;15.40;99.90
21353;DHT22;10834;52.268;6.770;2023-07-31T02:27:54;15.50;99.90
21353;DHT22;10834;52.268;6.770;2023-07-31T02:30:43;15.50;99.90
21353;DHT22;10834;52.268;6.770;2023-07-31T02:33:29;15.50;99.90
21353;DHT22;10834;52.268;6.770;2023-07-31T02:36:16;15.50;99.90
21353;DHT22;10834;52.268;6.770;2023-07-31T02:39:02;15.50;99.90
21353;DHT22;10834;52.268;6.770;2023-07-31T02:41:48;15.50;99.90
21353;DHT22;10834;52.268;6.770;2023-07-31T02:44:34;15.60;99.90
21353;DHT22;10834;52.268;6.770;2023-07-31T02:47:20;15.60;99.90
21353;DHT22;10834;52.268;6.770;2023-07-31T02:50:06;15.60;99.90
21353;DHT22;10834;52.268;6.770;2023-07-31T02:52:52;15.60;99.90
21353;DHT22;10834;52.268;6.770;2023-07-31T02:55:38;15.60;99.90
21353;DHT22;10834;52.268;6.770;2023-07-31T02:58:24;15.60;99.90
21353;DHT22;10834;52.268;6.770;2023-07-31T03:01:11;15.70;99.90
21353;DHT22;10834;52.268;6.770;2023-07-31T03:03:57;15.60;99.90
21353;DHT22;10834;52.268;6.770;2023-07-31T03:06:43;15.60;99.90
21353;DHT22;10834;52.268;6.770;2023-07-31T03:09:29;15.70;99.90
21353;DHT22;10834;52.268;6.770;2023-07-31T03:12:15;15.70;99.90
21353;DHT22;10834;52.268;6.770;2023-07-31T03:15:01;15.70;99.90
21353;DHT22;10834;52.268;6.770;2023-07-31T03:17:47;15.70;99.90
21353;DHT22;10834;52.268;6.770;2023-07-31T03:20:33;15.80;99.90
21353;DHT22;10834;52.268;6.770;2023-07-31T03:23:19;15.80;99.90
21353;DHT22;10834;52.268;6.770;2023-07-31T03:26:07;15.80;99.90
21353;DHT22;10834;52.268;6.770;2023-07-31T03:28:53;15.90;99.90
21353;DHT22;10834;52.268;6.770;2023-07-31T03:31:39;15.90;99.90
21353;DHT22;10834;52.268;6.770;2023-07-31T03:34:25;15.90;99.90
21353;DHT22;10834;52.268;6.770;2023-07-31T03:37:11;15.90;99.90
21353;DHT22;10834;52.268;6.770;2023-07-31T03:39:57;16.00;99.90
21353;DHT22;10834;52.268;6.770;2023-07-31T03:42:43;16.00;99.90
21353;DHT22;10834;52.268;6.770;2023-07-31T03:45:29;16.00;99.90
21353;DHT22;10834;52.268;6.770;2023-07-31T03:48:16;16.00;99.90
21353;DHT22;10834;52.268;6.770;2023-07-31T03:51:02;16.00;99.90
21353;DHT22;10834;52.268;6.770;2023-07-31T03:53:48;16.00;99.90
21353;DHT22;10834;52.268;6.770;2023-07-31T03:56:34;16.00;99.90
21353;DHT22;10834;52.268;6.770;2023-07-31T03:59:20;16.00;99.90
21353;DHT22;10834;52.268;6.770;2023-07-31T04:02:06;16.00;99.90
21353;DHT22;10834;52.268;6.770;2023-07-31T04:04:52;16.00;99.90
21353;DHT22;10834;52.268;6.770;2023-07-31T04:07:38;16.10;99.90
21353;DHT22;10834;52.268;6.770;2023-07-31T04:10:24;16.00;99.90
21353;DHT22;10834;52.268;6.770;2023-07-31T04:13:10;16.00;99.90
21353;DHT22;10834;52.268;6.770;2023-07-31T04:15:56;16.00;99.90
21353;DHT22;10834;52.268;6.770;2023-07-31T04:18:42;16.10;99.90
21353;DHT22;10834;52.268;6.770;2023-07-31T04:21:29;16.10;99.90
21353;DHT22;10834;52.268;6.770;2023-07-31T04:24:15;16.10;99.90
21353;DHT22;10834;52.268;6.770;2023-07-31T04:27:01;16.10;99.90
21353;DHT22;10834;52.268;6.770;2023-07-31T04:29:47;16.10;99.90
21353;DHT22;10834;52.268;6.770;2023-07-31T04:32:33;16.00;99.90
21353;DHT22;10834;52.268;6.770;2023-07-31T04:35:21;16.10;99.90
21353;DHT22;10834;52.268;6.770;2023-07-31T04:38:07;16.10;99.90
21353;DHT22;10834;52.268;6.770;2023-07-31T04:40:53;16.10;99.90
21353;DHT22;10834;52.268;6.770;2023-07-31T04:43:39;16.10;99.90
21353;DHT22;10834;52.268;6.770;2023-07-31T04:46:25;16.10;99.90
21353;DHT22;10834;52.268;6.770;2023-07-31T04:49:12;16.10;99.90
21353;DHT22;10834;52.268;6.770;2023-07-31T04:51:58;16.10;99.90
21353;DHT22;10834;52.268;6.770;2023-07-31T04:54:44;16.00;99.90
21353;DHT22;10834;52.268;6.770;2023-07-31T04:57:30;16.00;99.90
21353;DHT22;10834;52.268;6.770;2023-07-31T05:00:16;16.10;99.90
21353;DHT22;10834;52.268;6.770;2023-07-31T05:03:02;16.10;99.90
21353;DHT22;10834;52.268;6.770;2023-07-31T05:05:49;16.10;99.90
21353;DHT22;10834;52.268;6.770;2023-07-31T05:08:35;16.10;99.90
21353;DHT22;10834;52.268;6.770;2023-07-31T05:11:21;16.10;99.90
21353;DHT22;10834;52.268;6.770;2023-07-31T05:14:07;16.10;99.90
21353;DHT22;10834;52.268;6.770;2023-07-31T05:16:53;16.00;99.90
21353;DHT22;10834;52.268;6.770;2023-07-31T05:19:39;16.00;99.90
21353;DHT22;10834;52.268;6.770;2023-07-31T05:22:26;16.00;99.90
21353;DHT22;10834;52.268;6.770;2023-07-31T05:25:12;16.00;99.90
21353;DHT22;10834;52.268;6.770;2023-07-31T05:27:58;16.00;99.90
21353;DHT22;10834;52.268;6.770;2023-07-31T05:30:44;16.00;99.90
21353;DHT22;10834;52.268;6.770;2023-07-31T05:33:30;16.00;99.90
21353;DHT22;10834;52.268;6.770;2023-07-31T05:36:17;16.00;99.90
21353;DHT22;10834;52.268;6.770;2023-07-31T05:39:03;16.00;99.90
21353;DHT22;10834;52.268;6.770;2023-07-31T05:41:52;16.10;99.90
21353;DHT22;10834;52.268;6.770;2023-07-31T05:44:39;16.00;99.90
21353;DHT22;10834;52.268;6.770;2023-07-31T05:47:25;16.10;99.90
21353;DHT22;10834;52.268;6.770;2023-07-31T05:50:11;16.10;99.90
21353;DHT22;10834;52.268;6.770;2023-07-31T05:52:57;16.10;99.90
21353;DHT22;10834;52.268;6.770;2023-07-31T05:55:43;16.10;99.90
21353;DHT22;10834;52.268;6.770;2023-07-31T05:58:29;16.10;99.90
21353;DHT22;10834;52.268;6.770;2023-07-31T06:01:16;16.20;99.90
21353;DHT22;10834;52.268;6.770;2023-07-31T06:04:03;16.20;99.90
21353;DHT22;10834;52.268;6.770;2023-07-31T06:06:49;16.20;99.90
21353;DHT22;10834;52.268;6.770;2023-07-31T06:09:35;16.20;99.90
21353;DHT22;10834;52.268;6.770;2023-07-31T06:12:21;16.20;99.90
21353;DHT22;10834;52.268;6.770;2023-07-31T06:15:07;16.30;99.90
21353;DHT22;10834;52.268;6.770;2023-07-31T06:17:53;16.30;99.90
21353;DHT22;10834;52.268;6.770;2023-07-31T06:20:39;16.30;99.90
21353;DHT22;10834;52.268;6.770;2023-07-31T06:23:26;16.30;99.90
21353;DHT22;10834;52.268;6.770;2023-07-31T06:26:12;16.30;99.90
21353;DHT22;10834;52.268;6.770;2023-07-31T06:28:58;16.30;99.90
21353;DHT22;10834;52.268;6.770;2023-07-31T06:31:44;16.30;99.90
21353;DHT22;10834;52.268;6.770;2023-07-31T06:34:30;16.20;99.90
21353;DHT22;10834;52.268;6.770;2023-07-31T06:37:16;16.20;99.90
21353;DHT22;10834;52.268;6.770;2023-07-31T06:40:02;16.20;99.90
21353;DHT22;10834;52.268;6.770;2023-07-31T06:42:51;16.10;99.90
21353;DHT22;10834;52.268;6.770;2023-07-31T06:45:37;16.10;99.90
21353;DHT22;10834;52.268;6.770;2023-07-31T06:48:23;16.10;99.90
21353;DHT22;10834;52.268;6.770;2023-07-31T06:51:09;16.10;99.90
21353;DHT22;10834;52.268;6.770;2023-07-31T06:53:55;16.10;99.90
21353;DHT22;10834;52.268;6.770;2023-07-31T06:56:41;16.10;99.90
21353;DHT22;10834;52.268;6.770;2023-07-31T06:59:27;16.10;99.90
21353;DHT22;10834;52.268;6.770;2023-07-31T07:02:13;16.10;99.90
21353;DHT22;10834;52.268;6.770;2023-07-31T07:04:59;16.20;99.90
21353;DHT22;10834;52.268;6.770;2023-07-31T07:07:45;16.20;99.90
21353;DHT22;10834;52.268;6.770;2023-07-31T07:10:31;16.30;99.90
21353;DHT22;10834;52.268;6.770;2023-07-31T07:13:17;16.30;99.90
21353;DHT22;10834;52.268;6.770;2023-07-31T07:16:04;16.30;99.90
21353;DHT22;10834;52.268;6.770;2023-07-31T07:18:50;16.40;99.90
21353;DHT22;10834;52.268;6.770;2023-07-31T07:21:36;16.40;99.90
21353;DHT22;10834;52.268;6.770;2023-07-31T07:24:22;16.40;99.90
21353;DHT22;10834;52.268;6.770;2023-07-31T07:27:08;16.40;99.90
21353;DHT22;10834;52.268;6.770;2023-07-31T07:29:55;16.50;99.90
21353;DHT22;10834;52.268;6.770;2023-07-31T07:32:41;16.50;99.90
21353;DHT22;10834;52.268;6.770;2023-07-31T07:35:27;16.60;99.90
21353;DHT22;10834;52.268;6.770;2023-07-31T07:38:14;16.70;99.90
21353;DHT22;10834;52.268;6.770;2023-07-31T07:41:04;16.70;99.90
21353;DHT22;10834;52.268;6.770;2023-07-31T07:43:51;16.70;99.90
21353;DHT22;10834;52.268;6.770;2023-07-31T07:46:37;16.80;99.90
21353;DHT22;10834;52.268;6.770;2023-07-31T07:49:23;16.80;99.90
21353;DHT22;10834;52.268;6.770;2023-07-31T07:52:09;16.80;99.90
21353;DHT22;10834;52.268;6.770;2023-07-31T07:54:55;16.80;99.90
21353;DHT22;10834;52.268;6.770;2023-07-31T07:57:42;16.80;99.90
21353;DHT22;10834;52.268;6.770;2023-07-31T08:00:29;16.90;99.90
21353;DHT22;10834;52.268;6.770;2023-07-31T08:03:15;16.90;99.90
21353;DHT22;10834;52.268;6.770;2023-07-31T08:06:02;16.90;99.90
21353;DHT22;10834;52.268;6.770;2023-07-31T08:08:48;17.00;99.90
21353;DHT22;10834;52.268;6.770;2023-07-31T08:11:34;17.00;99.90
21353;DHT22;10834;52.268;6.770;2023-07-31T08:14:21;17.00;99.90
21353;DHT22;10834;52.268;6.770;2023-07-31T08:17:07;17.00;99.90
21353;DHT22;10834;52.268;6.770;2023-07-31T08:19:53;17.10;99.90
21353;DHT22;10834;52.268;6.770;2023-07-31T08:22:39;17.10;99.90
21353;DHT22;10834;52.268;6.770;2023-07-31T08:25:25;17.20;99.90
21353;DHT22;10834;52.268;6.770;2023-07-31T08:28:11;17.20;99.90
21353;DHT22;10834;52.268;6.770;2023-07-31T08:30:57;17.30;99.90
21353;DHT22;10834;52.268;6.770;2023-07-31T08:33:43;17.30;99.90
21353;DHT22;10834;52.268;6.770;2023-07-31T08:36:29;17.30;99.90
21353;DHT22;10834;52.268;6.770;2023-07-31T08:39:15;17.30;99.90
21353;DHT22;10834;52.268;6.770;2023-07-31T08:42:01;17.30;99.90
21353;DHT22;10834;52.268;6.770;2023-07-31T08:44:48;17.30;99.90
21353;DHT22;10834;52.268;6.770;2023-07-31T08:47:35;17.30;99.90
21353;DHT22;10834;52.268;6.770;2023-07-31T08:50:21;17.30;99.90
21353;DHT22;10834;52.268;6.770;2023-07-31T08:53:07;17.30;99.90
21353;DHT22;10834;52.268;6.770;2023-07-31T08:55:54;17.40;99.90
21353;DHT22;10834;52.268;6.770;2023-07-31T08:58:41;17.40;99.90
21353;DHT22;10834;52.268;6.770;2023-07-31T09:01:30;17.50;99.90
21353;DHT22;10834;52.268;6.770;2023-07-31T09:04:18;17.50;99.90
21353;DHT22;10834;52.268;6.770;2023-07-31T09:07:05;17.60;99.90
21353;DHT22;10834;52.268;6.770;2023-07-31T09:09:51;17.60;99.90
21353;DHT22;10834;52.268;6.770;2023-07-31T09:12:38;17.60;99.90
21353;DHT22;10834;52.268;6.770;2023-07-31T09:15:25;17.60;99.90
21353;DHT22;10834;52.268;6.770;2023-07-31T09:18:11;17.70;99.90
21353;DHT22;10834;52.268;6.770;2023-07-31T09:21:06;17.70;99.90
21353;DHT22;10834;52.268;6.770;2023-07-31T09:23:53;17.70;99.90
21353;DHT22;10834;52.268;6.770;2023-07-31T09:26:42;17.70;99.90
21353;DHT22;10834;52.268;6.770;2023-07-31T09:29:28;17.70;99.90
21353;DHT22;10834;52.268;6.770;2023-07-31T09:32:18;17.80;99.90
21353;DHT22;10834;52.268;6.770;2023-07-31T09:35:32;17.80;99.90
21353;DHT22;10834;52.268;6.770;2023-07-31T09:38:18;17.80;99.90
21353;DHT22;10834;52.268;6.770;2023-07-31T09:41:05;17.90;99.90
21353;DHT22;10834;52.268;6.770;2023-07-31T09:43:54;17.90;99.90
21353;DHT22;10834;52.268;6.770;2023-07-31T09:46:40;17.90;99.90
21353;DHT22;10834;52.268;6.770;2023-07-31T09:49:26;17.90;99.90
21353;DHT22;10834;52.268;6.770;2023-07-31T09:52:13;18.00;99.90
21353;DHT22;10834;52.268;6.770;2023-07-31T09:54:59;18.00;99.90
21353;DHT22;10834;52.268;6.770;2023-07-31T09:57:47;18.10;99.90
21353;DHT22;10834;52.268;6.770;2023-07-31T10:00:35;18.20;99.90
21353;DHT22;10834;52.268;6.770;2023-07-31T10:03:21;18.30;99.90
21353;DHT22;10834;52.268;6.770;2023-07-31T10:06:09;18.30;99.90
21353;DHT22;10834;52.268;6.770;2023-07-31T10:08:56;18.30;99.90
21353;DHT22;10834;52.268;6.770;2023-07-31T10:11:46;18.30;99.90
21353;DHT22;10834;52.268;6.770;2023-07-31T10:14:36;18.30;99.90
21353;DHT22;10834;52.268;6.770;2023-07-31T10:17:25;18.30;99.90
21353;DHT22;10834;52.268;6.770;2023-07-31T10:20:12;18.40;99.90
21353;DHT22;10834;52.268;6.770;2023-07-31T10:22:58;18.40;99.90
21353;DHT22;10834;52.268;6.770;2023-07-31T10:25:45;18.40;99.90
21353;DHT22;10834;52.268;6.770;2023-07-31T10:28:32;18.40;99.90
21353;DHT22;10834;52.268;6.770;2023-07-31T10:31:20;18.40;99.90
21353;DHT22;10834;52.268;6.770;2023-07-31T10:34:07;18.40;99.90
21353;DHT22;10834;52.268;6.770;2023-07-31T10:40:18;18.50;99.90
21353;DHT22;10834;52.268;6.770;2023-07-31T10:43:06;18.50;99.90
21353;DHT22;10834;52.268;6.770;2023-07-31T10:45:54;18.50;99.90
21353;DHT22;10834;52.268;6.770;2023-07-31T10:48:41;18.50;99.90
21353;DHT22;10834;52.268;6.770;2023-07-31T10:51:34;18.50;99.90
21353;DHT22;10834;52.268;6.770;2023-07-31T10:54:20;18.50;99.90
21353;DHT22;10834;52.268;6.770;2023-07-31T10:57:20;18.60;99.90
21353;DHT22;10834;52.268;6.770;2023-07-31T11:03:08;18.90;99.90
21353;DHT22;10834;52.268;6.770;2023-07-31T11:08:46;19.00;99.90
21353;DHT22;10834;52.268;6.770;2023-07-31T11:11:33;19.00;99.90
21353;DHT22;10834;52.268;6.770;2023-07-31T11:14:20;19.10;99.90
21353;DHT22;10834;52.268;6.770;2023-07-31T11:17:07;19.00;99.90
21353;DHT22;10834;52.268;6.770;2023-07-31T11:19:53;19.00;99.90
21353;DHT22;10834;52.268;6.770;2023-07-31T11:22:39;19.00;99.90
21353;DHT22;10834;52.268;6.770;2023-07-31T11:25:25;19.00;99.90
21353;DHT22;10834;52.268;6.770;2023-07-31T11:28:16;18.90;99.90
21353;DHT22;10834;52.268;6.770;2023-07-31T11:31:02;18.90;99.90
21353;DHT22;10834;52.268;6.770;2023-07-31T11:33:48;18.80;99.90
21353;DHT22;10834;52.268;6.770;2023-07-31T11:36:34;18.80;99.90
21353;DHT22;10834;52.268;6.770;2023-07-31T11:39:20;18.80;99.90
21353;DHT22;10834;52.268;6.770;2023-07-31T11:42:06;18.80;99.90
21353;DHT22;10834;52.268;6.770;2023-07-31T11:44:52;18.80;99.90
21353;DHT22;10834;52.268;6.770;2023-07-31T11:47:38;18.80;99.90
21353;DHT22;10834;52.268;6.770;2023-07-31T11:50:24;18.80;99.90
21353;DHT22;10834;52.268;6.770;2023-07-31T11:53:11;18.90;99.90
21353;DHT22;10834;52.268;6.770;2023-07-31T11:55:59;19.10;99.90
21353;DHT22;10834;52.268;6.770;2023-07-31T11:58:47;19.30;99.90
21353;DHT22;10834;52.268;6.770;2023-07-31T12:01:35;19.50;99.90
21353;DHT22;10834;52.268;6.770;2023-07-31T12:04:21;19.60;99.90
21353;DHT22;10834;52.268;6.770;2023-07-31T12:07:07;19.70;99.90
21353;DHT22;10834;52.268;6.770;2023-07-31T12:09:56;20.00;99.90
21353;DHT22;10834;52.268;6.770;2023-07-31T12:12:42;20.10;99.90
21353;DHT22;10834;52.268;6.770;2023-07-31T12:15:39;20.10;99.90
21353;DHT22;10834;52.268;6.770;2023-07-31T12:18:27;20.20;99.90
21353;DHT22;10834;52.268;6.770;2023-07-31T12:21:13;20.30;99.90
21353;DHT22;10834;52.268;6.770;2023-07-31T12:24:02;20.40;99.90
21353;DHT22;10834;52.268;6.770;2023-07-31T12:26:48;20.50;99.90
21353;DHT22;10834;52.268;6.770;2023-07-31T12:29:35;20.50;99.90
21353;DHT22;10834;52.268;6.770;2023-07-31T12:32:25;20.50;99.90
21353;DHT22;10834;52.268;6.770;2023-07-31T12:35:11;20.70;99.90
21353;DHT22;10834;52.268;6.770;2023-07-31T12:38:01;20.60;99.90
21353;DHT22;10834;52.268;6.770;2023-07-31T12:40:47;20.50;99.90
21353;DHT22;10834;52.268;6.770;2023-07-31T12:43:34;20.30;99.90
21353;DHT22;10834;52.268;6.770;2023-07-31T12:46:20;20.10;99.90
21353;DHT22;10834;52.268;6.770;2023-07-31T12:49:06;19.80;99.90
21353;DHT22;10834;52.268;6.770;2023-07-31T12:51:52;19.70;99.90
21353;DHT22;10834;52.268;6.770;2023-07-31T12:54:39;19.50;99.90
21353;DHT22;10834;52.268;6.770;2023-07-31T12:57:25;19.40;99.90
21353;DHT22;10834;52.268;6.770;2023-07-31T13:00:12;19.30;99.90
21353;DHT22;10834;52.268;6.770;2023-07-31T13:02:59;19.10;99.90
21353;DHT22;10834;52.268;6.770;2023-07-31T13:05:45;19.10;99.90
21353;DHT22;10834;52.268;6.770;2023-07-31T13:08:31;19.10;99.90
21353;DHT22;10834;52.268;6.770;2023-07-31T13:11:18;19.00;99.90
21353;DHT22;10834;52.268;6.770;2023-07-31T13:14:03;18.90;99.90
21353;DHT22;10834;52.268;6.770;2023-07-31T13:16:50;18.90;99.90
21353;DHT22;10834;52.268;6.770;2023-07-31T13:19:36;18.80;99.90
21353;DHT22;10834;52.268;6.770;2023-07-31T13:22:22;18.90;99.90
21353;DHT22;10834;52.268;6.770;2023-07-31T13:25:08;19.00;99.90
21353;DHT22;10834;52.268;6.770;2023-07-31T13:27:55;19.10;99.90
21353;DHT22;10834;52.268;6.770;2023-07-31T13:30:41;19.00;99.90
21353;DHT22;10834;52.268;6.770;2023-07-31T13:33:27;19.00;99.90
21353;DHT22;10834;52.268;6.770;2023-07-31T13:36:13;19.10;99.90
21353;DHT22;10834;52.268;6.770;2023-07-31T13:39:00;19.10;99.90
21353;DHT22;10834;52.268;6.770;2023-07-31T13:41:46;19.20;99.90
21353;DHT22;10834;52.268;6.770;2023-07-31T13:44:32;19.40;99.90
21353;DHT22;10834;52.268;6.770;2023-07-31T13:47:19;19.40;99.90
21353;DHT22;10834;52.268;6.770;2023-07-31T13:50:06;19.40;99.90
21353;DHT22;10834;52.268;6.770;2023-07-31T13:52:52;19.40;99.90
21353;DHT22;10834;52.268;6.770;2023-07-31T13:55:38;19.40;99.90
21353;DHT22;10834;52.268;6.770;2023-07-31T13:58:24;19.30;99.90
21353;DHT22;10834;52.268;6.770;2023-07-31T14:01:10;19.20;99.90
21353;DHT22;10834;52.268;6.770;2023-07-31T14:03:56;19.10;99.90
21353;DHT22;10834;52.268;6.770;2023-07-31T14:06:43;19.10;99.90
21353;DHT22;10834;52.268;6.770;2023-07-31T14:09:29;19.30;99.90
21353;DHT22;10834;52.268;6.770;2023-07-31T14:12:15;19.30;99.90
21353;DHT22;10834;52.268;6.770;2023-07-31T14:15:01;19.50;99.90
21353;DHT22;10834;52.268;6.770;2023-07-31T14:17:47;19.70;99.90
21353;DHT22;10834;52.268;6.770;2023-07-31T14:20:33;19.80;99.90
21353;DHT22;10834;52.268;6.770;2023-07-31T14:23:19;19.80;99.90
21353;DHT22;10834;52.268;6.770;2023-07-31T14:26:08;19.70;99.90
21353;DHT22;10834;52.268;6.770;2023-07-31T14:28:54;19.70;99.90
21353;DHT22;10834;52.268;6.770;2023-07-31T14:31:40;19.60;99.90
21353;DHT22;10834;52.268;6.770;2023-07-31T14:34:26;19.60;99.90
21353;DHT22;10834;52.268;6.770;2023-07-31T14:37:12;19.60;99.90
21353;DHT22;10834;52.268;6.770;2023-07-31T14:39:58;19.60;99.90
21353;DHT22;10834;52.268;6.770;2023-07-31T14:42:44;19.50;99.90
21353;DHT22;10834;52.268;6.770;2023-07-31T14:45:30;19.50;99.90
21353;DHT22;10834;52.268;6.770;2023-07-31T14:48:16;19.50;99.90
21353;DHT22;10834;52.268;6.770;2023-07-31T14:51:03;19.50;99.90
21353;DHT22;10834;52.268;6.770;2023-07-31T14:53:49;19.50;99.90
21353;DHT22;10834;52.268;6.770;2023-07-31T14:56:35;19.40;99.90
21353;DHT22;10834;52.268;6.770;2023-07-31T14:59:21;19.20;99.90
21353;DHT22;10834;52.268;6.770;2023-07-31T15:02:10;19.20;99.90
21353;DHT22;10834;52.268;6.770;2023-07-31T15:04:56;19.10;99.90
21353;DHT22;10834;52.268;6.770;2023-07-31T15:07:42;19.00;99.90
21353;DHT22;10834;52.268;6.770;2023-07-31T15:10:28;18.90;99.90
21353;DHT22;10834;52.268;6.770;2023-07-31T15:13:14;18.80;99.90
21353;DHT22;10834;52.268;6.770;2023-07-31T15:16:00;18.70;99.90
21353;DHT22;10834;52.268;6.770;2023-07-31T15:18:46;18.70;99.90
21353;DHT22;10834;52.268;6.770;2023-07-31T15:21:32;18.70;99.90
21353;DHT22;10834;52.268;6.770;2023-07-31T15:24:18;18.60;99.90
21353;DHT22;10834;52.268;6.770;2023-07-31T15:27:06;18.60;99.90
21353;DHT22;10834;52.268;6.770;2023-07-31T15:29:54;18.60;99.90
21353;DHT22;10834;52.268;6.770;2023-07-31T15:32:40;18.50;99.90
21353;DHT22;10834;52.268;6.770;2023-07-31T15:35:26;18.50;99.90
21353;DHT22;10834;52.268;6.770;2023-07-31T15:38:12;18.50;99.90
21353;DHT22;10834;52.268;6.770;2023-07-31T15:40:58;18.50;99.90
21353;DHT22;10834;52.268;6.770;2023-07-31T15:43:44;18.50;99.90
21353;DHT22;10834;52.268;6.770;2023-07-31T15:46:31;18.40;99.90
21353;DHT22;10834;52.268;6.770;2023-07-31T15:49:17;18.40;99.90
21353;DHT22;10834;52.268;6.770;2023-07-31T15:52:03;18.40;99.90
21353;DHT22;10834;52.268;6.770;2023-07-31T15:54:49;18.40;99.90
21353;DHT22;10834;52.268;6.770;2023-07-31T15:57:35;18.40;99.90
21353;DHT22;10834;52.268;6.770;2023-07-31T16:00:21;18.40;99.90
21353;DHT22;10834;52.268;6.770;2023-07-31T16:03:07;18.40;99.90
21353;DHT22;10834;52.268;6.770;2023-07-31T16:05:53;18.40;99.90
21353;DHT22;10834;52.268;6.770;2023-07-31T16:08:40;18.40;99.90
21353;DHT22;10834;52.268;6.770;2023-07-31T16:11:27;18.40;99.90
21353;DHT22;10834;52.268;6.770;2023-07-31T16:14:13;18.30;99.90
21353;DHT22;10834;52.268;6.770;2023-07-31T16:16:59;18.30;99.90
21353;DHT22;10834;52.268;6.770;2023-07-31T16:19:45;18.30;99.90
21353;DHT22;10834;52.268;6.770;2023-07-31T16:22:32;18.30;99.90
21353;DHT22;10834;52.268;6.770;2023-07-31T16:25:18;18.30;99.90
21353;DHT22;10834;52.268;6.770;2023-07-31T16:28:04;18.20;99.90
21353;DHT22;10834;52.268;6.770;2023-07-31T16:30:50;18.20;99.90
21353;DHT22;10834;52.268;6.770;2023-07-31T16:33:36;18.20;99.90
21353;DHT22;10834;52.268;6.770;2023-07-31T16:36:22;18.10;99.90
21353;DHT22;10834;52.268;6.770;2023-07-31T16:39:08;18.10;99.90
21353;DHT22;10834;52.268;6.770;2023-07-31T16:41:55;18.10;99.90
21353;DHT22;10834;52.268;6.770;2023-07-31T16:44:42;18.10;99.90
21353;DHT22;10834;52.268;6.770;2023-07-31T16:47:28;18.10;99.90
21353;DHT22;10834;52.268;6.770;2023-07-31T16:50:14;18.10;99.90
21353;DHT22;10834;52.268;6.770;2023-07-31T16:53:01;18.10;99.90
21353;DHT22;10834;52.268;6.770;2023-07-31T16:55:47;18.10;99.90
21353;DHT22;10834;52.268;6.770;2023-07-31T16:58:33;18.10;99.90
21353;DHT22;10834;52.268;6.770;2023-07-31T17:01:20;18.00;99.90
21353;DHT22;10834;52.268;6.770;2023-07-31T17:04:06;18.00;99.90
21353;DHT22;10834;52.268;6.770;2023-07-31T17:06:52;18.00;99.90
21353;DHT22;10834;52.268;6.770;2023-07-31T17:09:38;18.00;99.90
21353;DHT22;10834;52.268;6.770;2023-07-31T17:12:24;18.00;99.90
21353;DHT22;10834;52.268;6.770;2023-07-31T17:15:10;18.00;99.90
21353;DHT22;10834;52.268;6.770;2023-07-31T17:17:56;18.00;99.90
21353;DHT22;10834;52.268;6.770;2023-07-31T17:20:42;18.00;99.90
21353;DHT22;10834;52.268;6.770;2023-07-31T17:23:28;18.00;99.90
21353;DHT22;10834;52.268;6.770;2023-07-31T17:26:14;18.00;99.90
21353;DHT22;10834;52.268;6.770;2023-07-31T17:29:00;18.00;99.90
21353;DHT22;10834;52.268;6.770;2023-07-31T17:31:46;17.90;99.90
21353;DHT22;10834;52.268;6.770;2023-07-31T17:34:32;17.90;99.90
21353;DHT22;10834;52.268;6.770;2023-07-31T17:37:18;17.90;99.90
21353;DHT22;10834;52.268;6.770;2023-07-31T17:40:05;17.90;99.90
21353;DHT22;10834;52.268;6.770;2023-07-31T17:42:51;17.90;99.90
21353;DHT22;10834;52.268;6.770;2023-07-31T17:45:37;17.80;99.90
21353;DHT22;10834;52.268;6.770;2023-07-31T17:48:23;17.90;99.90
21353;DHT22;10834;52.268;6.770;2023-07-31T17:51:09;17.80;99.90